本日のフライト

2007
Leg14 CZAM-CYRV
1011z-1023z
RJ85

Leg15 CYRV-CZST
1035z-1208z
RJ85

Leg16 CZST-CZFA
1218z-1320z
RJ85

Leg17 CZFA-PADQ
1330z-1510z
RJ85

CYRV
CYRV。
disconnectすると気象がクリアされちゃうんで実感乏しいですが、この時のMETARはCYRV 140900Z AUTO 00000KT 7SM OVC060 M00/M02 A2996 RMK SLP162
スープの中を降りてくようなもんで、空港視認した時は思わず「アホか!」と叫んでましたわよ :hammer:

20070314_leg15.jpg
Leg15の経過。
相変わらずべらぼうな向かい風が続くのでちょっと見直したら、普段日本から北米へ飛ぶ時にアテにしてる気流に今回は真っ向から向かっているのでありました。こりゃたまらん。
この状況いつまで続くんだろうか・・・ 🙁

コメントを残す

このサイトはスパムを低減するために Akismet を使っています。コメントデータの処理方法の詳細はこちらをご覧ください